createdAt,value
2018-01-27T00:00:19.679Z,91.10
2018-01-27T00:02:47.917Z,90.90
2018-01-27T00:05:15.389Z,90.90
2018-01-27T00:07:43.635Z,91.10
2018-01-27T00:10:11.142Z,90.80
2018-01-27T00:12:39.384Z,90.70
2018-01-27T00:15:06.886Z,90.70
2018-01-27T00:17:34.362Z,90.60
2018-01-27T00:20:02.015Z,90.60
2018-01-27T00:22:29.490Z,90.60
2018-01-27T00:24:56.986Z,90.50
2018-01-27T00:27:25.234Z,90.60
2018-01-27T00:29:52.721Z,90.60
2018-01-27T00:32:20.962Z,90.50
2018-01-27T00:34:48.437Z,90.50
2018-01-27T00:37:16.706Z,90.30
2018-01-27T00:39:44.202Z,90.30
2018-01-27T00:42:11.670Z,90.50
2018-01-27T00:44:39.138Z,90.40
2018-01-27T00:47:06.611Z,90.00
2018-01-27T00:49:34.074Z,90.00
2018-01-27T00:52:03.773Z,90.10
2018-01-27T00:54:31.251Z,90.10
2018-01-27T00:56:58.738Z,90.00
2018-01-27T00:59:26.244Z,90.30
2018-01-27T01:01:53.732Z,90.00
2018-01-27T01:04:21.975Z,90.10
2018-01-27T01:06:49.435Z,90.40
2018-01-27T01:09:16.922Z,90.00
2018-01-27T01:11:45.154Z,90.20
2018-01-27T01:14:12.642Z,90.20
2018-01-27T01:25:16.472Z,90.60
2018-01-27T01:27:43.944Z,90.60
2018-01-27T01:30:11.425Z,90.70
2018-01-27T01:32:39.679Z,90.70
2018-01-27T01:35:07.168Z,90.70
2018-01-27T01:37:34.636Z,90.60
2018-01-27T01:40:02.103Z,90.70
2018-01-27T01:42:35.433Z,90.70
2018-01-27T01:45:02.960Z,90.50
2018-01-27T01:47:30.471Z,90.50
2018-01-27T01:49:58.727Z,90.60
2018-01-27T01:52:26.244Z,90.60
2018-01-27T01:54:53.787Z,90.60
2018-01-27T01:57:21.311Z,90.70
2018-01-27T01:59:49.549Z,90.60
2018-01-27T02:02:17.038Z,90.70
2018-01-27T02:04:45.345Z,90.70
2018-01-27T02:07:12.867Z,90.60
2018-01-27T02:09:41.099Z,90.70
2018-01-27T02:12:08.592Z,90.70
2018-01-27T02:14:36.070Z,90.60
2018-01-27T02:17:04.329Z,90.60
2018-01-27T02:19:32.563Z,90.40
2018-01-27T02:22:00.051Z,90.30
2018-01-27T02:24:27.531Z,90.30
2018-01-27T02:26:55.013Z,90.40
2018-01-27T02:29:22.493Z,90.40
2018-01-27T02:31:49.960Z,90.20
2018-01-27T02:34:17.456Z,90.30
2018-01-27T02:36:44.936Z,90.30
2018-01-27T02:39:12.415Z,90.50
2018-01-27T02:41:39.892Z,90.50
2018-01-27T02:44:07.379Z,90.50
2018-01-27T02:46:34.900Z,90.50
2018-01-27T02:49:02.527Z,90.40
2018-01-27T02:51:30.007Z,90.40
2018-01-27T03:02:32.337Z,90.60
2018-01-27T03:05:01.314Z,90.70
2018-01-27T03:07:28.786Z,90.60
2018-01-27T03:09:56.263Z,90.60
2018-01-27T03:12:24.509Z,90.60
2018-01-27T03:14:51.973Z,90.50
2018-01-27T03:17:19.498Z,90.60
2018-01-27T03:19:46.987Z,90.60
2018-01-27T03:22:14.455Z,90.50
2018-01-27T03:24:42.737Z,90.40
2018-01-27T03:27:10.992Z,90.50
2018-01-27T03:29:38.455Z,90.50
2018-01-27T03:32:06.715Z,90.30
2018-01-27T03:34:34.183Z,90.30
2018-01-27T03:37:01.666Z,90.40
2018-01-27T03:39:29.158Z,90.50
2018-01-27T03:41:56.625Z,90.60
2018-01-27T03:44:24.124Z,90.60
2018-01-27T03:46:52.357Z,90.70
2018-01-27T03:49:19.868Z,90.60
2018-01-27T03:51:47.347Z,90.60
2018-01-27T03:54:14.860Z,90.60
2018-01-27T03:56:43.200Z,90.60
2018-01-27T03:59:10.808Z,90.60
2018-01-27T04:01:38.477Z,90.50
2018-01-27T04:04:05.940Z,90.50
2018-01-27T04:06:33.430Z,90.50
2018-01-27T04:09:00.907Z,90.70
2018-01-27T04:11:28.389Z,90.60
2018-01-27T04:13:55.859Z,90.60
2018-01-27T04:16:23.352Z,90.70
2018-01-27T04:18:50.817Z,90.70
2018-01-27T04:21:18.310Z,90.70
2018-01-27T04:23:45.815Z,90.40
2018-01-27T04:26:13.303Z,90.40
2018-01-27T04:28:40.858Z,90.40
2018-01-27T04:31:08.345Z,90.40
2018-01-27T04:33:35.822Z,90.30
2018-01-27T04:36:03.339Z,90.60
2018-01-27T04:38:31.627Z,90.70
2018-01-27T04:40:59.857Z,90.70
2018-01-27T04:43:27.328Z,90.70
2018-01-27T04:45:54.833Z,90.70
2018-01-27T04:48:22.295Z,90.50
2018-01-27T04:50:49.787Z,90.40
2018-01-27T04:53:17.288Z,90.50
2018-01-27T04:55:44.761Z,90.60
2018-01-27T04:58:12.260Z,90.60
2018-01-27T05:00:39.721Z,90.70
2018-01-27T05:03:08.709Z,90.50
2018-01-27T05:05:36.973Z,90.40
2018-01-27T05:08:04.455Z,90.40
2018-01-27T05:10:32.726Z,90.70
2018-01-27T05:13:00.202Z,90.70
2018-01-27T05:15:27.655Z,90.90
2018-01-27T05:17:55.134Z,90.70
2018-01-27T05:20:22.667Z,90.60
2018-01-27T05:22:50.123Z,90.60
2018-01-27T05:25:17.610Z,90.70
2018-01-27T05:27:45.097Z,90.60
2018-01-27T05:30:12.573Z,90.70
2018-01-27T05:32:40.826Z,90.70
2018-01-27T05:35:08.314Z,90.70
2018-01-27T05:37:36.575Z,90.40
2018-01-27T05:40:04.046Z,90.70
2018-01-27T05:42:32.297Z,90.50
2018-01-27T05:44:59.794Z,90.40
2018-01-27T05:47:27.250Z,90.40
2018-01-27T05:49:54.765Z,90.40
2018-01-27T05:52:22.229Z,90.40
2018-01-27T05:54:50.487Z,90.30
2018-01-27T05:57:17.958Z,90.20
2018-01-27T05:59:46.188Z,90.40
2018-01-27T06:02:13.666Z,90.40
2018-01-27T06:04:41.934Z,90.80
2018-01-27T06:07:09.404Z,90.80
2018-01-27T06:09:36.877Z,91.00
2018-01-27T06:12:05.133Z,91.20
2018-01-27T06:14:32.604Z,91.20
2018-01-27T06:17:00.846Z,91.60
2018-01-27T06:19:28.324Z,91.40
2018-01-27T06:21:55.806Z,91.40
2018-01-27T06:24:23.288Z,91.30
2018-01-27T06:26:50.785Z,91.20
2018-01-27T06:29:18.251Z,91.10
2018-01-27T06:31:46.530Z,90.70
2018-01-27T06:34:14.860Z,91.00
2018-01-27T06:36:42.328Z,90.90
2018-01-27T06:39:09.835Z,90.90
2018-01-27T06:41:38.102Z,90.90
2018-01-27T06:44:06.355Z,90.90
2018-01-27T06:46:33.821Z,90.90
2018-01-27T06:49:02.266Z,91.00
2018-01-27T06:51:29.750Z,91.00
2018-01-27T06:53:57.245Z,90.90
2018-01-27T06:56:24.731Z,90.80
2018-01-27T06:58:52.208Z,90.80
2018-01-27T07:01:19.675Z,90.80
2018-01-27T07:03:47.185Z,90.70
2018-01-27T07:06:14.698Z,90.40
2018-01-27T07:08:42.160Z,90.60
2018-01-27T07:11:10.424Z,90.50
2018-01-27T07:13:39.774Z,90.50
2018-01-27T07:16:07.256Z,90.80
2018-01-27T07:18:34.735Z,90.60
2018-01-27T07:21:02.218Z,90.60
2018-01-27T07:23:29.712Z,90.70
2018-01-27T07:25:57.193Z,90.60
2018-01-27T07:28:24.664Z,90.70
2018-01-27T07:30:52.926Z,91.00
2018-01-27T07:33:20.391Z,90.90
2018-01-27T07:35:48.653Z,91.10
2018-01-27T07:38:16.141Z,91.10
2018-01-27T07:40:43.637Z,91.20
2018-01-27T07:43:11.129Z,91.60
2018-01-27T07:45:39.378Z,91.50
2018-01-27T07:48:06.909Z,91.50
2018-01-27T07:50:34.419Z,91.30
2018-01-27T07:53:01.890Z,91.10
2018-01-27T07:55:29.479Z,91.00
2018-01-27T07:57:56.957Z,91.00
2018-01-27T08:00:24.450Z,91.50
2018-01-27T08:02:51.943Z,91.20
2018-01-27T08:05:19.427Z,90.90
2018-01-27T08:07:46.921Z,90.80
2018-01-27T08:10:15.166Z,90.70
2018-01-27T08:12:42.651Z,90.60
2018-01-27T08:15:10.887Z,90.80
2018-01-27T08:17:38.366Z,90.80
2018-01-27T08:20:07.414Z,90.80
2018-01-27T08:22:34.906Z,90.80
2018-01-27T08:25:02.390Z,90.80
2018-01-27T08:27:30.698Z,91.00
2018-01-27T08:29:58.166Z,91.00
2018-01-27T08:32:25.650Z,91.10
2018-01-27T08:34:53.139Z,91.10
2018-01-27T08:37:21.380Z,90.70
2018-01-27T08:39:48.865Z,90.70
2018-01-27T08:42:16.334Z,90.70
2018-01-27T08:44:43.854Z,90.70
2018-01-27T08:47:11.322Z,90.60
2018-01-27T08:49:38.797Z,90.70
2018-01-27T08:52:07.027Z,90.60
2018-01-27T08:54:34.510Z,90.60
2018-01-27T08:57:02.006Z,90.70
2018-01-27T08:59:29.492Z,91.00
2018-01-27T09:01:56.994Z,90.80
2018-01-27T09:04:25.218Z,90.90
2018-01-27T09:06:52.710Z,90.90
2018-01-27T09:09:20.954Z,90.90
2018-01-27T09:11:48.449Z,90.90
2018-01-27T09:14:16.722Z,90.80
2018-01-27T09:16:44.956Z,90.50
2018-01-27T09:19:12.431Z,90.50
2018-01-27T09:21:39.929Z,90.30
2018-01-27T09:24:07.426Z,90.10
2018-01-27T09:26:34.901Z,90.00
2018-01-27T09:29:02.433Z,88.50
2018-01-27T09:31:29.915Z,88.20
2018-01-27T09:33:57.410Z,88.20
2018-01-27T09:36:24.953Z,87.70
2018-01-27T09:38:53.204Z,87.70
2018-01-27T09:41:20.682Z,87.70
2018-01-27T09:43:48.924Z,87.10
2018-01-27T09:46:16.392Z,87.70
2018-01-27T09:48:43.890Z,87.50
2018-01-27T09:51:11.357Z,85.90
2018-01-27T09:53:38.812Z,84.20
2018-01-27T09:56:06.299Z,82.20
2018-01-27T09:58:33.771Z,79.90
2018-01-27T10:01:01.244Z,77.60
2018-01-27T10:03:28.734Z,75.90
2018-01-27T10:05:56.232Z,74.40
2018-01-27T10:08:23.701Z,74.80
2018-01-27T10:10:51.189Z,76.60
2018-01-27T10:13:18.813Z,77.40
2018-01-27T10:15:46.309Z,78.40
2018-01-27T10:18:13.775Z,80.10
2018-01-27T10:20:41.329Z,80.90
2018-01-27T10:23:08.828Z,81.30
2018-01-27T10:25:36.293Z,81.60
2018-01-27T10:28:03.775Z,81.50
2018-01-27T10:30:31.251Z,81.20
2018-01-27T10:32:59.176Z,80.80
2018-01-27T10:35:26.659Z,79.60
2018-01-27T10:37:54.181Z,80.50
2018-01-27T10:40:21.651Z,79.30
2018-01-27T10:42:49.947Z,76.60
2018-01-27T10:45:17.429Z,76.60
2018-01-27T10:47:44.930Z,75.80
2018-01-27T10:50:12.390Z,73.10
2018-01-27T10:52:39.886Z,70.20
2018-01-27T10:55:07.443Z,65.70
2018-01-27T10:57:34.937Z,64.30
2018-01-27T11:00:02.443Z,63.60
2018-01-27T11:02:30.680Z,65.60
2018-01-27T11:04:58.186Z,65.80
2018-01-27T11:07:25.726Z,64.60
2018-01-27T11:09:54.023Z,61.90
2018-01-27T11:12:21.540Z,61.80
2018-01-27T11:14:49.037Z,61.10
2018-01-27T11:17:16.534Z,61.60
2018-01-27T11:19:44.005Z,60.60
2018-01-27T11:22:18.582Z,60.50
2018-01-27T11:24:46.072Z,61.00
2018-01-27T11:27:13.547Z,59.60
2018-01-27T11:29:41.799Z,59.90
2018-01-27T11:32:09.283Z,59.90
2018-01-27T11:34:37.509Z,58.40
2018-01-27T11:37:04.987Z,58.40
2018-01-27T11:39:32.493Z,58.40
2018-01-27T11:42:00.107Z,58.00
2018-01-27T11:44:27.590Z,57.30
2018-01-27T11:46:55.831Z,58.40
2018-01-27T11:49:24.091Z,59.30
2018-01-27T11:51:51.696Z,59.30
2018-01-27T11:54:19.206Z,60.10
2018-01-27T11:56:46.683Z,61.10
2018-01-27T11:59:14.161Z,62.60
2018-01-27T12:01:42.402Z,61.70
2018-01-27T12:04:09.892Z,61.70
2018-01-27T12:06:38.132Z,62.90
2018-01-27T12:09:05.626Z,62.70
2018-01-27T12:11:33.105Z,60.60
2018-01-27T12:14:00.588Z,59.80
2018-01-27T12:16:28.092Z,60.50
2018-01-27T12:18:56.360Z,62.80
2018-01-27T12:21:24.617Z,62.80
2018-01-27T12:23:52.107Z,62.80
2018-01-27T12:26:19.595Z,63.50
2018-01-27T12:28:47.102Z,63.20
2018-01-27T12:31:15.355Z,63.90
2018-01-27T12:33:42.891Z,63.90
2018-01-27T12:36:10.374Z,63.70
2018-01-27T12:38:38.628Z,63.00
2018-01-27T12:41:06.144Z,63.00
2018-01-27T12:43:33.737Z,63.50
2018-01-27T12:46:01.221Z,63.70
2018-01-27T12:48:28.697Z,63.70
2018-01-27T12:50:56.943Z,63.80
2018-01-27T12:53:24.482Z,63.70
2018-01-27T12:55:51.954Z,64.20
2018-01-27T12:58:19.430Z,63.50
2018-01-27T13:00:47.669Z,63.00
2018-01-27T13:03:15.167Z,63.00
2018-01-27T13:05:43.464Z,61.50
2018-01-27T13:08:10.947Z,61.50
2018-01-27T13:10:38.434Z,62.40
2018-01-27T13:13:05.941Z,62.00
2018-01-27T13:15:33.421Z,61.80
2018-01-27T13:18:00.916Z,60.40
2018-01-27T13:20:29.160Z,59.30
2018-01-27T13:22:56.637Z,59.20
2018-01-27T13:25:24.211Z,58.00
2018-01-27T13:27:52.674Z,57.90
2018-01-27T13:30:20.196Z,57.90
2018-01-27T13:32:47.701Z,57.40
2018-01-27T13:35:15.972Z,58.10
2018-01-27T13:37:43.469Z,58.10
2018-01-27T13:40:10.929Z,58.90
2018-01-27T13:42:38.425Z,58.20
2018-01-27T13:45:06.092Z,57.90
2018-01-27T13:47:33.577Z,57.20
2018-01-27T13:50:01.076Z,57.40
2018-01-27T13:52:28.554Z,57.40
2018-01-27T13:54:56.077Z,57.20
2018-01-27T13:57:23.556Z,56.90
2018-01-27T13:59:51.058Z,56.20
2018-01-27T14:02:18.555Z,56.60
2018-01-27T14:04:46.190Z,56.80
2018-01-27T14:07:13.690Z,57.10
2018-01-27T14:09:41.185Z,57.30
2018-01-27T14:12:09.438Z,57.70
2018-01-27T14:14:36.922Z,57.60
2018-01-27T14:17:04.440Z,58.30
2018-01-27T14:19:31.926Z,58.70
2018-01-27T14:22:00.376Z,58.90
2018-01-27T14:24:27.860Z,58.90
2018-01-27T14:26:56.130Z,58.70
2018-01-27T14:29:24.385Z,58.30
2018-01-27T14:31:51.899Z,58.30
2018-01-27T14:34:19.389Z,58.50
2018-01-27T14:36:46.868Z,58.70
2018-01-27T14:39:15.118Z,58.80
2018-01-27T14:41:42.613Z,58.70
2018-01-27T14:44:10.103Z,58.80
2018-01-27T14:46:37.622Z,58.90
2018-01-27T14:49:05.874Z,59.30
2018-01-27T14:51:34.157Z,59.20
2018-01-27T14:54:02.433Z,59.50
2018-01-27T14:56:30.696Z,59.40
2018-01-27T14:58:59.777Z,59.70
2018-01-27T15:01:27.246Z,59.60
2018-01-27T15:03:55.559Z,61.20
2018-01-27T15:06:23.037Z,61.20
2018-01-27T15:08:50.522Z,61.90
2018-01-27T15:11:18.009Z,62.30
2018-01-27T15:13:46.248Z,62.30
2018-01-27T15:16:13.761Z,62.30
2018-01-27T15:18:41.244Z,63.00
2018-01-27T15:21:08.730Z,63.00
2018-01-27T15:23:36.242Z,63.10
2018-01-27T15:26:03.786Z,63.80
2018-01-27T15:28:31.266Z,64.40
2018-01-27T15:30:58.828Z,65.40
2018-01-27T15:33:26.304Z,65.90
2018-01-27T15:35:53.798Z,66.20
2018-01-27T15:38:21.306Z,67.00
2018-01-27T15:40:48.782Z,69.00
2018-01-27T15:43:16.267Z,70.60
2018-01-27T15:45:43.756Z,71.30
2018-01-27T15:48:11.244Z,71.70
2018-01-27T15:50:39.498Z,72.80
2018-01-27T15:53:06.987Z,72.70
2018-01-27T15:55:35.226Z,73.90
2018-01-27T15:58:02.716Z,73.90
2018-01-27T16:00:30.189Z,74.10
2018-01-27T16:02:57.694Z,74.80
2018-01-27T16:05:25.192Z,75.10
2018-01-27T16:07:53.443Z,76.10
2018-01-27T16:10:20.935Z,76.00
2018-01-27T16:12:48.438Z,76.00
2018-01-27T16:15:15.911Z,76.50
2018-01-27T16:17:43.419Z,76.90
2018-01-27T16:20:10.892Z,76.90
2018-01-27T16:22:38.388Z,77.30
2018-01-27T16:25:05.864Z,77.50
2018-01-27T16:27:34.123Z,78.20
2018-01-27T16:30:02.367Z,78.50
2018-01-27T16:32:29.875Z,78.50
2018-01-27T16:34:58.299Z,79.20
2018-01-27T16:37:25.786Z,79.20
2018-01-27T16:39:54.027Z,80.10
2018-01-27T16:42:21.519Z,80.00
2018-01-27T16:44:48.990Z,80.30
2018-01-27T16:47:17.255Z,80.60
2018-01-27T16:49:45.536Z,80.80
2018-01-27T16:52:14.896Z,81.40
2018-01-27T16:54:42.388Z,81.20
2018-01-27T16:57:10.648Z,81.60
2018-01-27T16:59:38.111Z,81.60
2018-01-27T17:02:06.387Z,82.40
2018-01-27T17:04:34.642Z,82.40
2018-01-27T17:07:02.146Z,82.40
2018-01-27T17:09:29.652Z,82.40
2018-01-27T17:11:57.152Z,82.40
2018-01-27T17:14:24.634Z,82.90
2018-01-27T17:16:52.115Z,83.00
2018-01-27T17:19:19.608Z,83.10
2018-01-27T17:21:47.942Z,83.10
2018-01-27T17:24:15.437Z,82.90
2018-01-27T17:26:43.702Z,83.00
2018-01-27T17:29:11.178Z,83.00
2018-01-27T17:31:38.667Z,83.90
2018-01-27T17:34:06.173Z,83.00
2018-01-27T17:36:34.437Z,83.40
2018-01-27T17:39:01.923Z,83.30
2018-01-27T17:41:29.505Z,82.90
2018-01-27T17:43:56.969Z,83.30
2018-01-27T17:46:24.478Z,83.60
2018-01-27T17:48:52.743Z,83.80
2018-01-27T17:51:20.206Z,83.80
2018-01-27T17:53:48.477Z,84.00
2018-01-27T17:56:16.739Z,84.00
2018-01-27T17:58:44.252Z,84.00
2018-01-27T18:01:11.731Z,83.80
2018-01-27T18:03:39.211Z,83.80
2018-01-27T18:06:06.692Z,84.40
2018-01-27T18:08:34.933Z,83.80
2018-01-27T18:11:02.448Z,83.80
2018-01-27T18:13:29.929Z,84.00
2018-01-27T18:15:57.433Z,83.90
2018-01-27T18:18:25.732Z,84.00
2018-01-27T18:20:53.212Z,83.80
2018-01-27T18:23:20.691Z,84.10
2018-01-27T18:25:48.182Z,84.00
2018-01-27T18:28:15.693Z,84.10
2018-01-27T18:30:43.197Z,83.60
2018-01-27T18:33:10.681Z,83.50
2018-01-27T18:35:38.159Z,83.30
2018-01-27T18:38:05.662Z,83.10
2018-01-27T18:40:33.129Z,83.00
2018-01-27T18:43:00.632Z,83.30
2018-01-27T18:45:28.113Z,83.00
2018-01-27T18:47:56.378Z,82.60
2018-01-27T18:50:23.848Z,82.60
2018-01-27T18:52:52.101Z,82.30
2018-01-27T18:55:19.597Z,82.30
2018-01-27T18:57:47.076Z,82.50
2018-01-27T19:00:14.579Z,82.20
2018-01-27T19:02:42.060Z,82.20
2018-01-27T19:05:10.311Z,81.90
2018-01-27T19:07:38.569Z,81.70
2018-01-27T19:10:06.056Z,81.70
2018-01-27T19:12:33.524Z,81.60
2018-01-27T19:15:01.003Z,81.80
2018-01-27T19:17:28.507Z,81.70
2018-01-27T19:19:56.005Z,81.60
2018-01-27T19:22:23.496Z,81.50
2018-01-27T19:24:50.972Z,81.10
2018-01-27T19:27:18.466Z,80.80
2018-01-27T19:29:46.028Z,80.50
2018-01-27T19:32:13.524Z,80.40
2018-01-27T19:34:41.006Z,80.40
2018-01-27T19:37:09.265Z,80.30
2018-01-27T19:39:36.801Z,80.30
2018-01-27T19:42:04.318Z,80.00
2018-01-27T19:44:31.793Z,79.90
2018-01-27T19:46:59.880Z,80.10
2018-01-27T19:49:27.348Z,80.80
2018-01-27T19:51:54.843Z,79.60
2018-01-27T19:54:23.151Z,79.30
2018-01-27T19:56:50.673Z,79.30
2018-01-27T19:59:18.929Z,79.00
2018-01-27T20:01:46.409Z,79.00
2018-01-27T20:04:13.919Z,79.10
2018-01-27T20:06:41.410Z,79.00
2018-01-27T20:09:09.671Z,79.20
2018-01-27T20:11:37.151Z,79.10
2018-01-27T20:14:05.408Z,78.50
2018-01-27T20:16:33.653Z,78.70
2018-01-27T20:19:01.125Z,78.40
2018-01-27T20:21:30.125Z,78.60
2018-01-27T20:23:57.608Z,78.50
2018-01-27T20:26:25.083Z,78.80
2018-01-27T20:28:52.560Z,78.20
2018-01-27T20:31:20.060Z,78.30
2018-01-27T20:33:48.303Z,78.60
2018-01-27T20:36:15.786Z,78.60
2018-01-27T20:38:44.031Z,78.40
2018-01-27T20:41:11.535Z,78.40
2018-01-27T20:43:39.015Z,78.30
2018-01-27T20:46:06.497Z,78.10
2018-01-27T20:48:33.980Z,78.00
2018-01-27T20:51:01.469Z,78.10
2018-01-27T20:53:28.947Z,78.00
2018-01-27T20:55:56.442Z,78.20
2018-01-27T20:58:23.963Z,78.50
2018-01-27T21:00:51.447Z,78.60
2018-01-27T21:03:19.009Z,78.40
2018-01-27T21:05:46.566Z,78.50
2018-01-27T21:08:14.023Z,78.50
2018-01-27T21:10:41.504Z,78.80
2018-01-27T21:13:09.760Z,79.10
2018-01-27T21:15:37.243Z,79.70
2018-01-27T21:18:04.838Z,79.40
2018-01-27T21:20:32.326Z,79.80
2018-01-27T21:22:59.814Z,80.40
2018-01-27T21:25:27.543Z,80.30
2018-01-27T21:27:55.030Z,80.20
2018-01-27T21:30:22.508Z,81.10
2018-01-27T21:32:49.998Z,81.40
2018-01-27T21:35:17.482Z,83.00
2018-01-27T21:37:44.968Z,84.00
2018-01-27T21:40:12.467Z,83.60
2018-01-27T21:42:39.985Z,85.00
2018-01-27T21:45:08.530Z,85.60
2018-01-27T21:47:36.804Z,85.80
2018-01-27T21:50:05.050Z,86.80
2018-01-27T21:52:32.853Z,86.80
2018-01-27T21:55:01.354Z,85.10
2018-01-27T21:57:28.832Z,85.10
2018-01-27T21:59:56.395Z,87.50
2018-01-27T22:02:23.864Z,86.40
2018-01-27T22:04:51.365Z,85.60
2018-01-27T22:07:19.606Z,86.60
2018-01-27T22:09:47.087Z,86.50
2018-01-27T22:12:15.322Z,85.00
2018-01-27T22:14:42.825Z,84.80
2018-01-27T22:17:10.397Z,84.40
2018-01-27T22:19:37.874Z,85.70
2018-01-27T22:22:05.364Z,84.40
2018-01-27T22:24:32.856Z,83.50
2018-01-27T22:27:00.404Z,83.40
2018-01-27T22:29:27.884Z,83.80
2018-01-27T22:31:55.407Z,83.30
2018-01-27T22:34:23.650Z,83.00
2018-01-27T22:36:51.149Z,83.00
2018-01-27T22:39:19.402Z,83.40
2018-01-27T22:41:47.934Z,83.30
2018-01-27T22:44:15.416Z,83.30
2018-01-27T22:46:42.892Z,83.60
2018-01-27T22:49:11.114Z,82.50
2018-01-27T22:51:38.628Z,82.50
2018-01-27T22:54:06.910Z,84.60
2018-01-27T22:56:35.197Z,86.00
2018-01-27T22:59:02.683Z,86.00
2018-01-27T23:01:30.170Z,86.20
2018-01-27T23:03:57.651Z,86.60
2018-01-27T23:06:25.997Z,86.40
2018-01-27T23:08:54.259Z,85.80
2018-01-27T23:11:21.800Z,85.80
2018-01-27T23:13:49.272Z,85.90
2018-01-27T23:16:16.720Z,85.10
2018-01-27T23:18:44.195Z,85.50
2018-01-27T23:21:11.671Z,85.60
2018-01-27T23:23:39.142Z,85.30
2018-01-27T23:26:07.362Z,84.00
2018-01-27T23:28:34.835Z,84.00
2018-01-27T23:31:02.296Z,83.70
2018-01-27T23:33:29.884Z,82.70
2018-01-27T23:35:58.161Z,82.70
2018-01-27T23:38:25.653Z,82.70
2018-01-27T23:40:53.152Z,83.30
2018-01-27T23:43:20.680Z,83.10
2018-01-27T23:45:48.149Z,83.20
2018-01-27T23:48:15.677Z,83.10
2018-01-27T23:50:43.150Z,83.80
2018-01-27T23:53:10.616Z,84.10
2018-01-27T23:55:38.103Z,85.10
2018-01-27T23:58:05.558Z,85.90
